createdAt,value
2018-09-12T00:02:07.256Z,3.10
2018-09-12T00:04:35.005Z,3.40
2018-09-12T00:07:03.319Z,2.90
2018-09-12T00:09:32.218Z,2.95
2018-09-12T00:12:00.538Z,2.90
2018-09-12T00:14:28.859Z,3.15
2018-09-12T00:16:56.606Z,2.78
2018-09-12T00:19:25.528Z,2.72
2018-09-12T00:21:53.254Z,2.97
2018-09-12T00:24:22.153Z,2.95
2018-09-12T00:26:49.897Z,2.70
2018-09-12T00:29:18.795Z,2.80
2018-09-12T00:31:46.534Z,3.12
2018-09-12T00:34:14.950Z,2.62
2018-09-12T00:36:43.757Z,2.90
2018-09-12T00:39:12.082Z,2.83
2018-09-12T00:41:39.824Z,2.67
2018-09-12T00:44:08.730Z,2.62
2018-09-12T00:46:37.044Z,2.78
2018-09-12T00:49:05.366Z,3.00
2018-09-12T00:51:34.200Z,2.72
2018-09-12T00:54:02.516Z,2.55
2018-09-12T00:56:30.834Z,2.90
2018-09-12T00:58:58.577Z,2.72
2018-09-12T01:01:27.474Z,2.62
2018-09-12T01:03:55.805Z,2.83
2018-09-12T01:06:24.127Z,2.60
2018-09-12T01:08:52.446Z,2.78
2018-09-12T01:11:20.772Z,2.55
2018-09-12T01:13:48.529Z,2.78
2018-09-12T01:16:18.755Z,2.50
2018-09-12T01:18:47.654Z,2.72
2018-09-12T01:21:17.941Z,2.70
2018-09-12T01:23:46.261Z,2.67
2018-09-12T01:26:14.581Z,2.80
2018-09-12T01:28:42.529Z,2.55
2018-09-12T01:31:11.227Z,2.67
2018-09-12T01:33:39.554Z,2.60
2018-09-12T01:36:07.288Z,2.70
2018-09-12T01:38:36.186Z,2.60
2018-09-12T01:41:04.505Z,2.50
2018-09-12T01:43:32.837Z,2.80
2018-09-12T01:46:01.231Z,2.78
2018-09-12T01:48:29.552Z,2.65
2018-09-12T01:50:57.874Z,2.62
2018-09-12T01:53:25.768Z,2.53
2018-09-12T01:55:54.753Z,2.78
2018-09-12T01:58:23.076Z,2.72
2018-09-12T02:00:51.398Z,2.67
2018-09-12T02:03:20.221Z,2.60
2018-09-12T02:05:47.965Z,2.53
2018-09-12T02:08:16.867Z,3.05
2018-09-12T02:10:45.181Z,2.72
2018-09-12T02:13:13.508Z,2.80
2018-09-12T02:15:41.244Z,3.00
2018-09-12T02:18:10.141Z,2.90
2018-09-12T02:20:38.472Z,2.70
2018-09-12T02:23:06.376Z,2.58
2018-09-12T02:25:35.110Z,2.60
2018-09-12T02:28:03.429Z,2.83
2018-09-12T02:30:31.750Z,3.00
2018-09-12T02:32:59.488Z,2.65
2018-09-12T02:35:28.386Z,2.42
2018-09-12T02:37:56.132Z,2.85
2018-09-12T02:40:25.029Z,2.58
2018-09-12T02:42:53.354Z,2.90
2018-09-12T02:45:21.688Z,2.90
2018-09-12T02:47:49.425Z,3.00
2018-09-12T02:50:17.835Z,2.75
2018-09-12T02:52:46.733Z,2.42
2018-09-12T02:55:15.057Z,2.67
2018-09-12T02:57:43.383Z,2.65
2018-09-12T03:00:11.122Z,2.53
2018-09-12T03:02:39.445Z,2.87
2018-09-12T03:05:08.343Z,3.17
2018-09-12T03:07:36.664Z,2.97
2018-09-12T03:10:04.988Z,2.92
2018-09-12T03:12:33.310Z,2.85
2018-09-12T03:15:01.632Z,2.95
2018-09-12T03:17:29.377Z,3.00
2018-09-12T03:19:58.273Z,2.50
2018-09-12T03:22:26.590Z,2.92
2018-09-12T03:24:54.909Z,2.85
2018-09-12T03:27:22.650Z,2.70
2018-09-12T03:29:51.553Z,2.78
2018-09-12T03:32:19.874Z,2.70
2018-09-12T03:34:48.189Z,2.97
2018-09-12T03:37:16.506Z,3.00
2018-09-12T03:39:44.251Z,2.80
2018-09-12T03:42:13.157Z,2.97
2018-09-12T03:44:41.513Z,2.70
2018-09-12T03:47:10.415Z,2.70
2018-09-12T03:49:38.738Z,3.00
2018-09-12T03:52:07.065Z,2.55
2018-09-12T03:54:34.858Z,2.75
2018-09-12T03:57:03.705Z,2.80
2018-09-12T03:59:31.456Z,2.80
2018-09-12T04:02:00.359Z,2.55
2018-09-12T04:04:28.681Z,2.67
2018-09-12T04:06:57.006Z,2.72
2018-09-12T04:09:25.325Z,2.87
2018-09-12T04:11:53.642Z,3.65
2018-09-12T04:14:21.966Z,3.00
2018-09-12T04:16:53.777Z,4.78
2018-09-12T04:19:22.034Z,6.78
2018-09-12T04:21:50.358Z,8.30
2018-09-12T04:24:18.755Z,8.38
2018-09-12T04:26:46.423Z,7.78
2018-09-12T04:29:15.328Z,7.37
2018-09-12T04:31:43.069Z,7.12
2018-09-12T04:34:11.392Z,6.97
2018-09-12T04:36:40.289Z,7.03
2018-09-12T04:39:08.612Z,6.12
2018-09-12T04:41:36.933Z,5.37
2018-09-12T04:44:05.262Z,75.32
2018-09-12T04:46:33.015Z,48.55
2018-09-12T04:49:01.929Z,45.80
2018-09-12T04:51:29.688Z,43.90
2018-09-12T04:53:58.022Z,39.33
2018-09-12T04:56:26.359Z,34.30
2018-09-12T04:58:55.186Z,36.78
2018-09-12T05:01:23.602Z,28.83
2018-09-12T05:03:52.000Z,28.70
2018-09-12T05:06:20.332Z,27.20
2018-09-12T05:08:48.668Z,24.87
2018-09-12T05:11:16.996Z,23.67
2018-09-12T05:13:44.744Z,19.60
2018-09-12T05:16:13.074Z,23.85
2018-09-12T05:18:41.406Z,21.90
2018-09-12T05:21:09.737Z,22.58
2018-09-12T05:23:38.069Z,21.65
2018-09-12T05:26:06.403Z,19.92
2018-09-12T05:28:35.378Z,18.35
2018-09-12T05:31:03.654Z,20.20
2018-09-12T05:33:31.411Z,20.95
2018-09-12T05:36:00.033Z,19.52
2018-09-12T05:38:38.649Z,18.92
2018-09-12T05:41:08.572Z,17.65
2018-09-12T05:43:36.324Z,17.37
2018-09-12T05:46:05.256Z,17.58
2018-09-12T05:48:33.583Z,15.32
2018-09-12T05:51:01.339Z,16.23
2018-09-12T05:53:29.666Z,15.75
2018-09-12T05:55:58.579Z,14.65
2018-09-12T05:58:26.325Z,14.00
2018-09-12T06:00:54.668Z,13.65
2018-09-12T06:03:23.587Z,25.70
2018-09-12T06:05:51.927Z,19.73
2018-09-12T06:08:20.261Z,19.58
2018-09-12T06:10:48.641Z,20.85
2018-09-12T06:13:17.304Z,20.17
2018-09-12T06:15:45.052Z,20.05
2018-09-12T06:18:13.385Z,20.02
2018-09-12T06:20:42.296Z,22.65
2018-09-12T06:23:10.632Z,22.00
2018-09-12T06:25:38.383Z,24.80
2018-09-12T06:28:07.300Z,27.27
2018-09-12T06:30:35.638Z,26.90
2018-09-12T06:33:04.454Z,27.13
2018-09-12T06:35:32.205Z,26.10
2018-09-12T06:38:00.545Z,27.02
2018-09-12T06:40:28.880Z,27.15
2018-09-12T06:42:57.212Z,25.95
2018-09-12T06:45:25.550Z,27.13
2018-09-12T06:47:54.462Z,26.40
2018-09-12T06:50:22.214Z,24.83
2018-09-12T06:52:51.129Z,25.05
2018-09-12T06:55:19.464Z,24.77
2018-09-12T06:57:47.796Z,22.95
2018-09-12T07:00:15.550Z,23.33
2018-09-12T07:02:59.459Z,22.08
2018-09-12T07:05:27.210Z,21.90
2018-09-12T07:08:01.449Z,21.65
2018-09-12T07:10:29.191Z,22.05
2018-09-12T07:12:58.111Z,20.55
2018-09-12T07:15:26.447Z,20.45
2018-09-12T07:17:54.693Z,21.23
2018-09-12T07:20:22.529Z,18.30
2018-09-12T07:22:50.861Z,26.73
2018-09-12T07:25:19.196Z,38.72
2018-09-12T07:27:48.120Z,50.47
2018-09-12T07:30:17.061Z,48.85
2018-09-12T07:32:44.820Z,58.08
2018-09-12T07:35:13.734Z,51.45
2018-09-12T07:37:41.484Z,48.50
2018-09-12T07:40:09.818Z,41.72
2018-09-12T07:42:38.768Z,41.13
2018-09-12T07:45:07.112Z,38.33
2018-09-12T07:47:35.464Z,30.77
2018-09-12T07:50:03.789Z,34.92
2018-09-12T07:52:32.120Z,36.33
2018-09-12T07:54:59.873Z,33.00
2018-09-12T07:57:28.788Z,33.95
2018-09-12T07:59:57.174Z,31.27
2018-09-12T08:02:25.460Z,31.40
2018-09-12T08:04:53.279Z,29.85
2018-09-12T08:07:21.694Z,24.73
2018-09-12T08:09:50.474Z,23.50
2018-09-12T08:12:18.948Z,21.83
2018-09-12T08:14:46.558Z,21.05
2018-09-12T08:17:15.517Z,22.52
2018-09-12T08:19:43.245Z,20.08
2018-09-12T08:22:12.173Z,19.17
2018-09-12T08:24:40.442Z,19.58
2018-09-12T08:27:08.828Z,18.92
2018-09-12T08:29:36.586Z,18.90
2018-09-12T08:32:05.564Z,18.52
2018-09-12T08:34:33.903Z,17.73
2018-09-12T08:37:01.656Z,18.00
2018-09-12T08:39:30.576Z,17.62
2018-09-12T08:41:58.387Z,16.90
2018-09-12T08:44:27.236Z,20.40
2018-09-12T08:46:55.649Z,20.02
2018-09-12T08:49:23.325Z,20.35
2018-09-12T08:51:52.235Z,19.35
2018-09-12T08:54:20.569Z,18.60
2018-09-12T08:56:48.920Z,18.35
2018-09-12T08:59:17.240Z,17.70
2018-09-12T09:01:45.625Z,17.83
2018-09-12T09:04:26.288Z,16.67
2018-09-12T09:06:54.639Z,16.27
2018-09-12T09:09:23.050Z,16.35
2018-09-12T09:11:51.640Z,15.65
2018-09-12T09:14:20.557Z,16.33
2018-09-12T09:16:48.312Z,15.38
2018-09-12T09:19:17.221Z,15.50
2018-09-12T09:21:45.365Z,15.88
2018-09-12T09:24:13.890Z,14.80
2018-09-12T09:26:50.495Z,15.02
2018-09-12T09:29:18.245Z,14.20
2018-09-12T09:31:47.155Z,13.80
2018-09-12T09:34:14.906Z,16.33
2018-09-12T09:36:43.244Z,15.10
2018-09-12T09:39:12.164Z,15.98
2018-09-12T09:41:40.498Z,15.00
2018-09-12T09:44:08.318Z,14.73
2018-09-12T09:46:36.589Z,14.60
2018-09-12T09:49:05.060Z,13.93
2018-09-12T09:51:33.975Z,11.48
2018-09-12T09:54:01.739Z,33.25
2018-09-12T09:56:30.653Z,71.22
2018-09-12T09:58:58.989Z,73.32
2018-09-12T10:01:29.256Z,68.07
2018-09-12T10:03:57.591Z,56.60
2018-09-12T10:06:25.346Z,54.80
2018-09-12T10:08:54.257Z,53.97
2018-09-12T10:11:22.594Z,44.22
2018-09-12T10:13:50.927Z,42.00
2018-09-12T10:16:19.263Z,41.30
2018-09-12T10:18:47.603Z,37.35
2018-09-12T10:21:15.934Z,38.42
2018-09-12T10:23:43.694Z,38.28
2018-09-12T10:26:13.199Z,36.42
2018-09-12T10:28:40.992Z,32.25
2018-09-12T10:31:09.327Z,30.08
2018-09-12T10:33:38.232Z,28.33
2018-09-12T10:36:06.567Z,26.08
2018-09-12T10:38:34.417Z,25.33
2018-09-12T10:41:03.364Z,25.02
2018-09-12T10:43:31.081Z,23.92
2018-09-12T10:45:59.417Z,23.48
2018-09-12T10:48:27.755Z,22.73
2018-09-12T10:50:56.671Z,20.05
2018-09-12T10:53:24.994Z,19.65
2018-09-12T10:55:52.752Z,20.12
2018-09-12T10:58:21.674Z,19.85
2018-09-12T11:00:50.007Z,24.17
2018-09-12T11:03:17.765Z,20.55
2018-09-12T11:05:46.099Z,19.75
2018-09-12T11:08:14.432Z,17.45
2018-09-12T11:10:47.843Z,18.73
2018-09-12T11:13:16.180Z,17.10
2018-09-12T11:15:44.698Z,15.40
2018-09-12T11:18:13.491Z,14.68
2018-09-12T11:20:41.824Z,14.00
2018-09-12T11:23:09.574Z,13.13
2018-09-12T11:25:38.491Z,13.35
2018-09-12T11:28:06.828Z,12.30
2018-09-12T11:30:35.160Z,14.68
2018-09-12T11:33:03.490Z,13.27
2018-09-12T11:35:31.677Z,13.00
2018-09-12T11:38:00.710Z,12.43
2018-09-12T11:40:29.044Z,11.25
2018-09-12T11:42:57.379Z,15.95
2018-09-12T11:45:25.707Z,14.80
2018-09-12T11:47:53.462Z,13.73
2018-09-12T11:50:22.380Z,12.80
2018-09-12T11:52:50.718Z,12.88
2018-09-12T11:55:18.466Z,12.23
2018-09-12T11:57:46.815Z,12.05
2018-09-12T12:00:15.726Z,10.85
2018-09-12T12:02:44.058Z,11.30
2018-09-12T12:05:12.393Z,10.82
2018-09-12T12:07:40.144Z,10.65
2018-09-12T12:10:09.061Z,10.65
2018-09-12T12:12:36.812Z,9.35
2018-09-12T12:15:10.994Z,9.52
2018-09-12T12:17:39.870Z,10.60
2018-09-12T12:20:08.195Z,8.90
2018-09-12T12:22:35.942Z,8.90
2018-09-12T12:25:04.270Z,66.60
2018-09-12T12:27:33.267Z,70.55
2018-09-12T12:30:01.617Z,47.15
2018-09-12T12:32:29.369Z,40.35
2018-09-12T12:34:57.959Z,37.25
2018-09-12T12:37:26.629Z,36.25
2018-09-12T12:39:54.964Z,28.42
2018-09-12T12:42:22.722Z,25.73
2018-09-12T12:44:51.065Z,20.98
2018-09-12T12:47:20.352Z,20.83
2018-09-12T12:49:48.684Z,16.73
2018-09-12T12:52:17.910Z,17.87
2018-09-12T12:54:46.271Z,13.75
2018-09-12T12:57:14.608Z,11.75
2018-09-12T12:59:42.557Z,11.15
2018-09-12T13:02:11.472Z,10.00
2018-09-12T13:04:39.266Z,8.70
2018-09-12T13:07:07.701Z,9.57
2018-09-12T13:09:36.326Z,7.85
2018-09-12T13:12:04.929Z,8.55
2018-09-12T13:14:33.467Z,7.55
2018-09-12T13:17:01.741Z,7.68
2018-09-12T13:19:30.067Z,7.20
2018-09-12T13:21:58.394Z,6.60
2018-09-12T13:24:26.834Z,5.78
2018-09-12T13:26:54.581Z,6.53
2018-09-12T13:29:23.596Z,7.32
2018-09-12T13:31:51.340Z,6.55
2018-09-12T13:34:20.264Z,7.57
2018-09-12T13:36:48.583Z,6.65
2018-09-12T13:39:16.901Z,6.53
2018-09-12T13:41:45.225Z,6.50
2018-09-12T13:44:13.546Z,6.93
2018-09-12T13:46:41.399Z,6.87
2018-09-12T13:49:09.707Z,6.10
2018-09-12T13:51:38.608Z,6.53
2018-09-12T13:54:07.347Z,6.85
2018-09-12T13:56:35.617Z,15.15
2018-09-12T13:59:04.475Z,6.20
2018-09-12T14:01:32.481Z,6.57
2018-09-12T14:04:01.394Z,5.70
2018-09-12T14:06:29.724Z,6.05
2018-09-12T14:08:58.450Z,5.32
2018-09-12T14:11:26.106Z,6.15
2018-09-12T14:13:55.009Z,5.95
2018-09-12T14:16:23.326Z,5.50
2018-09-12T14:18:51.068Z,5.82
2018-09-12T14:21:19.972Z,5.68
2018-09-12T14:23:47.906Z,5.15
2018-09-12T14:26:16.816Z,5.15
2018-09-12T14:28:44.566Z,5.90
2018-09-12T14:31:13.468Z,4.90
2018-09-12T14:33:41.801Z,4.90
2018-09-12T14:36:10.286Z,4.85
2018-09-12T14:38:38.666Z,4.85
2018-09-12T14:41:06.583Z,5.03
2018-09-12T14:43:35.366Z,5.15
2018-09-12T14:46:03.691Z,4.15
2018-09-12T14:48:32.025Z,4.15
2018-09-12T14:51:00.345Z,4.30
2018-09-12T14:53:28.674Z,4.78
2018-09-12T14:55:57.019Z,4.50
2018-09-12T14:58:24.765Z,4.20
2018-09-12T15:00:53.368Z,4.60
2018-09-12T15:03:21.988Z,4.40
2018-09-12T15:05:49.732Z,4.40
2018-09-12T15:08:18.223Z,4.47
2018-09-12T15:10:46.953Z,4.32
2018-09-12T15:13:15.289Z,3.87
2018-09-12T15:15:43.604Z,4.00
2018-09-12T15:18:11.361Z,4.28
2018-09-12T15:20:40.275Z,4.62
2018-09-12T15:23:08.600Z,4.28
2018-09-12T15:25:36.932Z,4.15
2018-09-12T15:28:05.541Z,4.12
2018-09-12T15:30:33.864Z,3.95
2018-09-12T15:33:02.188Z,4.07
2018-09-12T15:35:29.938Z,4.10
2018-09-12T15:37:58.839Z,3.92
2018-09-12T15:40:27.167Z,3.75
2018-09-12T15:42:55.347Z,3.78
2018-09-12T15:45:23.808Z,3.90
2018-09-12T15:47:52.139Z,3.60
2018-09-12T15:50:20.465Z,4.15
2018-09-12T15:52:48.360Z,3.50
2018-09-12T15:55:17.121Z,3.30
2018-09-12T15:57:45.496Z,3.80
2018-09-12T16:00:13.771Z,3.83
2018-09-12T16:02:42.160Z,3.58
2018-09-12T16:05:09.861Z,3.72
2018-09-12T16:07:38.820Z,3.72
2018-09-12T16:10:06.801Z,3.90
2018-09-12T16:12:34.895Z,3.85
2018-09-12T16:15:03.807Z,3.37
2018-09-12T16:17:32.123Z,3.40
2018-09-12T16:19:59.873Z,3.87
2018-09-12T16:22:28.770Z,3.47
2018-09-12T16:24:57.006Z,3.40
2018-09-12T16:27:25.338Z,22.05
2018-09-12T16:29:54.268Z,19.60
2018-09-12T16:32:22.589Z,16.37
2018-09-12T16:34:50.921Z,14.80
2018-09-12T16:37:19.133Z,10.60
2018-09-12T16:39:48.044Z,8.45
2018-09-12T16:42:16.370Z,7.07
2018-09-12T16:44:44.693Z,4.18
2018-09-12T16:47:13.019Z,4.93
2018-09-12T16:49:41.345Z,4.53
2018-09-12T16:52:10.201Z,4.47
2018-09-12T16:54:38.520Z,4.20
2018-09-12T16:57:06.278Z,4.12
2018-09-12T16:59:35.235Z,4.28
2018-09-12T17:02:03.688Z,4.30
2018-09-12T17:04:32.102Z,6.15
2018-09-12T17:07:00.439Z,12.68
2018-09-12T17:09:28.868Z,8.52
2018-09-12T17:11:56.728Z,8.50
2018-09-12T17:14:24.952Z,8.77
2018-09-12T17:16:53.852Z,7.62
2018-09-12T17:19:22.486Z,6.75
2018-09-12T17:21:50.816Z,7.00
2018-09-12T17:24:19.154Z,6.45
2018-09-12T17:26:48.336Z,7.55
2018-09-12T17:29:16.807Z,6.15
2018-09-12T17:31:44.493Z,8.93
2018-09-12T17:34:12.825Z,8.38
2018-09-12T17:36:41.237Z,8.32
2018-09-12T17:39:10.243Z,10.90
2018-09-12T17:41:42.111Z,18.10
2018-09-12T17:44:09.864Z,23.92
2018-09-12T17:46:38.794Z,28.55
2018-09-12T17:49:07.131Z,24.77
2018-09-12T17:51:35.495Z,27.10
2018-09-12T17:54:10.072Z,28.60
2018-09-12T17:56:37.868Z,28.95
2018-09-12T17:59:06.202Z,28.92
2018-09-12T18:01:35.116Z,26.15
2018-09-12T18:04:03.583Z,27.65
2018-09-12T18:06:31.918Z,23.92
2018-09-12T18:09:00.371Z,21.25
2018-09-12T18:11:28.722Z,20.80
2018-09-12T18:13:57.243Z,19.73
2018-09-12T18:16:25.616Z,18.55
2018-09-12T18:18:53.970Z,22.37
2018-09-12T18:21:24.510Z,23.02
2018-09-12T18:23:51.592Z,20.58
2018-09-12T18:26:20.648Z,20.02
2018-09-12T18:28:48.406Z,19.05
2018-09-12T18:31:16.788Z,19.08
2018-09-12T18:33:45.707Z,16.73
2018-09-12T18:36:14.127Z,17.80
2018-09-12T18:38:42.374Z,18.00
2018-09-12T18:41:10.796Z,16.25
2018-09-12T18:43:39.148Z,19.62
2018-09-12T18:46:07.492Z,18.45
2018-09-12T18:48:35.825Z,17.62
2018-09-12T18:51:03.581Z,17.12
2018-09-12T18:53:32.511Z,16.00
2018-09-12T18:56:01.112Z,15.27
2018-09-12T18:58:29.472Z,14.52
2018-09-12T19:00:57.817Z,14.05
2018-09-12T19:03:26.874Z,13.88
2018-09-12T19:05:55.224Z,13.77
2018-09-12T19:08:23.549Z,12.68
2018-09-12T19:10:52.581Z,13.05
2018-09-12T19:13:21.011Z,13.05
2018-09-12T19:15:49.337Z,11.98
2018-09-12T19:18:18.132Z,5.47
2018-09-12T19:20:46.461Z,4.75
2018-09-12T19:23:15.745Z,6.12
2018-09-12T19:25:44.147Z,7.18
2018-09-12T19:28:12.481Z,7.43
2018-09-12T19:30:40.817Z,7.28
2018-09-12T19:33:09.152Z,7.30
2018-09-12T19:35:37.483Z,7.00
2018-09-12T19:38:05.812Z,6.82
2018-09-12T19:40:34.147Z,7.32
2018-09-12T19:43:02.490Z,5.93
2018-09-12T19:45:30.818Z,6.90
2018-09-12T19:47:58.577Z,7.15
2018-09-12T19:50:28.634Z,6.15
2018-09-12T19:52:56.994Z,6.40
2018-09-12T19:55:25.369Z,6.53
2018-09-12T19:57:53.701Z,5.20
2018-09-12T20:00:21.473Z,5.50
2018-09-12T20:02:50.397Z,5.50
2018-09-12T20:05:19.370Z,5.15
2018-09-12T20:07:47.701Z,5.15
2018-09-12T20:10:20.762Z,5.25
2018-09-12T20:12:49.129Z,5.30
2018-09-12T20:15:17.462Z,5.20
2018-09-12T20:17:46.420Z,6.00
2018-09-12T20:20:14.784Z,16.12
2018-09-12T20:22:43.134Z,17.92
2018-09-12T20:25:11.045Z,30.52
2018-09-12T20:27:39.972Z,26.77
2018-09-12T20:30:08.439Z,30.65
2018-09-12T20:32:36.749Z,38.95
2018-09-12T20:35:05.020Z,34.70
2018-09-12T20:37:33.357Z,32.63
2018-09-12T20:40:01.700Z,28.50
2018-09-12T20:42:29.556Z,27.55
2018-09-12T20:44:57.790Z,23.27
2018-09-12T20:47:26.129Z,23.00
2018-09-12T20:49:55.047Z,19.35
2018-09-12T20:52:23.383Z,21.00
2018-09-12T20:54:51.157Z,17.23
2018-09-12T20:57:21.433Z,18.77
2018-09-12T20:59:49.769Z,16.40
2018-09-12T21:02:18.691Z,18.90
2018-09-12T21:04:46.474Z,18.37
2018-09-12T21:07:15.404Z,29.08
2018-09-12T21:09:43.731Z,23.75
2018-09-12T21:12:11.610Z,25.73
2018-09-12T21:14:39.945Z,21.25
2018-09-12T21:17:08.870Z,19.55
2018-09-12T21:19:37.214Z,18.70
2018-09-12T21:22:05.555Z,16.42
2018-09-12T21:24:33.899Z,17.55
2018-09-12T21:27:01.654Z,16.48
2018-09-12T21:29:29.985Z,15.77
2018-09-12T21:31:58.325Z,13.82
2018-09-12T21:34:26.654Z,14.20
2018-09-12T21:36:55.568Z,22.20
2018-09-12T21:39:23.328Z,18.45
2018-09-12T21:41:51.669Z,17.08
2018-09-12T21:44:20.592Z,16.50
2018-09-12T21:46:48.933Z,15.60
2018-09-12T21:49:16.801Z,14.63
2018-09-12T21:51:45.719Z,15.38
2018-09-12T21:54:14.146Z,13.07
2018-09-12T21:56:42.489Z,13.98
2018-09-12T21:59:10.236Z,12.55
2018-09-12T22:01:39.470Z,13.05
2018-09-12T22:04:07.875Z,12.27
2018-09-12T22:06:35.624Z,11.57
2018-09-12T22:09:03.962Z,10.43
2018-09-12T22:11:32.300Z,10.27
2018-09-12T22:14:00.632Z,11.05
2018-09-12T22:16:28.970Z,9.40
2018-09-12T22:18:57.875Z,10.00
2018-09-12T22:21:26.208Z,9.18
2018-09-12T22:23:54.438Z,8.82
2018-09-12T22:26:22.764Z,8.73
2018-09-12T22:28:51.662Z,7.97
2018-09-12T22:31:19.409Z,7.85
2018-09-12T22:33:48.313Z,7.72
2018-09-12T22:36:16.060Z,7.57
2018-09-12T22:38:44.965Z,8.02
2018-09-12T22:41:13.284Z,7.07
2018-09-12T22:43:41.641Z,6.87
2018-09-12T22:46:09.961Z,6.43
2018-09-12T22:48:38.284Z,6.93
2018-09-12T22:51:06.115Z,7.25
2018-09-12T22:53:35.023Z,7.00
2018-09-12T22:56:03.334Z,6.65
2018-09-12T22:58:31.072Z,6.62
2018-09-12T23:00:59.405Z,6.28
2018-09-12T23:03:28.695Z,6.50
2018-09-12T23:05:56.432Z,5.72
2018-09-12T23:08:25.325Z,6.40
2018-09-12T23:10:53.074Z,6.57
2018-09-12T23:13:22.006Z,6.12
2018-09-12T23:15:50.322Z,6.28
2018-09-12T23:18:18.644Z,5.82
2018-09-12T23:20:47.463Z,6.60
2018-09-12T23:23:15.785Z,5.72
2018-09-12T23:25:44.108Z,6.18
2018-09-12T23:28:12.425Z,6.05
2018-09-12T23:30:40.745Z,5.90
2018-09-12T23:33:08.482Z,6.18
2018-09-12T23:35:37.382Z,6.00
2018-09-12T23:38:05.701Z,6.30
2018-09-12T23:40:34.021Z,6.50
2018-09-12T23:43:01.908Z,5.82
2018-09-12T23:45:30.670Z,5.68
2018-09-12T23:47:58.984Z,6.15
2018-09-12T23:50:27.307Z,5.40
2018-09-12T23:52:55.621Z,5.57
2018-09-12T23:55:23.949Z,5.22
2018-09-12T23:57:52.268Z,5.62
